KSTL/STL METAR and TAF weather

Enter ICAO airport designator
Station Type Date Time Source
KSTL METAR 2021/10/20 07:51 UTC NOAA

KSTL 200751Z 16004KT 10SM FEW120 14/08 A3009 RMK AO2 SLP183 T01440083


Station Type Date Time Source
KSTL Decoded METAR 2021/10/20 07:51 UTC NOAA

LAMBERT-ST LOUIS INTERNATIONAL AIRPORT , MO, United States (KSTL) 38-45N 90-22W 171M
Oct 20, 2021 - 03:51 AM EDT / 2021.10.20 0751 UTC
Wind: from the SSE (160 degrees) at 5 MPH (4 KT):0
Visibility: 10 mile(s):0
Sky conditions: mostly clear
Temperature: 57.9 F (14.4 C)
Dew Point: 46.9 F (8.3 C)
Relative Humidity: 66%
Pressure (altimeter): 30.09 in. Hg (1018 hPa)
ob: KSTL 200751Z 16004KT 10SM FEW120 14/08 A3009 RMK AO2 SLP183 T01440083
cycle: 8

Station Type Date Time Source
KSTL TAF 2021/10/20 06:22 UTC NOAA

TAF KSTL 200520Z 2006/2112 17006KT P6SM SKC
FM201700 19010G16KT P6SM SCT250
FM210200 21009KT P6SM VCSH BKN060
FM210400 25009KT P6SM BKN060
FM210900 28010KT P6SM SCT070

Example: see airport list